createdAt,value
2018-08-10T00:00:42.538Z,29.28
2018-08-10T00:01:52.632Z,29.26
2018-08-10T00:03:02.722Z,29.26
2018-08-10T00:04:12.539Z,29.24
2018-08-10T00:05:22.675Z,29.21
2018-08-10T00:06:32.511Z,29.23
2018-08-10T00:07:42.609Z,29.14
2018-08-10T00:08:52.857Z,29.2
2018-08-10T00:10:03.053Z,29.23
2018-08-10T00:11:13.154Z,29.18
2018-08-10T00:12:22.993Z,29.21
2018-08-10T00:13:33.097Z,29.29
2018-08-10T00:14:43.189Z,29.21
2018-08-10T00:15:53.022Z,29.18
2018-08-10T00:17:03.184Z,29.15
2018-08-10T00:18:13.273Z,29.2
2018-08-10T00:19:23.365Z,29.15
2018-08-10T00:20:33.194Z,29.15
2018-08-10T00:21:43.034Z,29.11
2018-08-10T00:22:53.139Z,29.18
2018-08-10T00:24:03.261Z,29.11
2018-08-10T00:25:13.081Z,29.1
2018-08-10T00:26:23.154Z,29.08
2018-08-10T00:27:33.271Z,29.05
2018-08-10T00:28:43.153Z,29.1
2018-08-10T00:29:53.237Z,29.08
2018-08-10T00:31:03.324Z,29.06
2018-08-10T00:32:13.405Z,29.11
2018-08-10T00:33:22.702Z,29.13
2018-08-10T00:34:32.777Z,29.06
2018-08-10T00:35:42.862Z,29.05
2018-08-10T00:36:52.948Z,29.08
2018-08-10T00:38:03.040Z,29.11
2018-08-10T00:39:12.875Z,29.1
2018-08-10T00:40:22.701Z,29.18
2018-08-10T00:41:32.776Z,29.1
2018-08-10T00:42:42.608Z,29.17
2018-08-10T00:43:52.414Z,29.14
2018-08-10T00:45:02.514Z,29.1
2018-08-10T00:46:12.591Z,29.02
2018-08-10T00:47:22.417Z,29.05
2018-08-10T00:48:32.495Z,29.05
2018-08-10T00:49:42.585Z,29.06
2018-08-10T00:50:52.137Z,29.03
2018-08-10T00:52:02.219Z,29.06
2018-08-10T00:53:12.300Z,29.01
2018-08-10T00:54:22.370Z,28.98
2018-08-10T00:55:32.469Z,28.94
2018-08-10T00:56:42.554Z,28.98
2018-08-10T00:57:52.614Z,29.03
2018-08-10T00:59:02.682Z,28.94
2018-08-10T01:00:12.768Z,28.86
2018-08-10T01:01:22.857Z,28.86
2018-08-10T01:02:32.931Z,28.83
2018-08-10T01:03:43.020Z,28.85
2018-08-10T01:04:53.088Z,28.75
2018-08-10T01:06:03.190Z,28.75
2018-08-10T01:07:13.264Z,28.68
2018-08-10T01:08:23.330Z,28.64
2018-08-10T01:09:33.150Z,28.65
2018-08-10T01:10:43.241Z,28.67
2018-08-10T01:11:53.320Z,28.64
2018-08-10T01:13:03.387Z,28.54
2018-08-10T01:14:13.571Z,28.63
2018-08-10T01:15:23.654Z,28.54
2018-08-10T01:16:33.480Z,28.54
2018-08-10T01:17:43.299Z,28.48
2018-08-10T01:18:53.400Z,28.48
2018-08-10T01:20:03.547Z,28.42
2018-08-10T01:21:13.662Z,28.41
2018-08-10T01:22:23.731Z,28.3
2018-08-10T01:23:33.810Z,28.33
2018-08-10T01:24:43.621Z,28.27
2018-08-10T01:25:53.716Z,28.17
2018-08-10T01:27:03.791Z,28.28
2018-08-10T01:28:13.927Z,28.21
2018-08-10T01:29:23.842Z,28.23
2018-08-10T01:30:33.908Z,28.24
2018-08-10T01:31:43.975Z,28.17
2018-08-10T01:32:54.107Z,28.14
2018-08-10T01:34:04.193Z,28.09
2018-08-10T01:35:14.025Z,28.17
2018-08-10T01:36:24.095Z,28.06
2018-08-10T01:37:34.157Z,28.08
2018-08-10T01:38:44.227Z,28.05
2018-08-10T01:39:54.303Z,27.98
2018-08-10T01:41:04.385Z,27.98
2018-08-10T01:42:14.478Z,27.98
2018-08-10T01:43:24.550Z,27.91
2018-08-10T01:44:34.157Z,27.87
2018-08-10T01:45:43.982Z,27.86
2018-08-10T01:46:54.052Z,27.86
2018-08-10T01:48:04.149Z,27.83
2018-08-10T01:49:14.227Z,27.76
2018-08-10T01:50:24.026Z,27.71
2018-08-10T01:51:34.099Z,27.72
2018-08-10T01:52:44.164Z,27.65
2018-08-10T01:53:54.260Z,27.68
2018-08-10T01:55:04.334Z,27.59
2018-08-10T01:56:14.416Z,27.64
2018-08-10T01:57:24.518Z,27.66
2018-08-10T01:58:34.323Z,27.48
2018-08-10T01:59:44.409Z,27.57
2018-08-10T02:00:54.216Z,27.53
2018-08-10T02:02:04.294Z,27.49
2018-08-10T02:03:14.364Z,27.48
2018-08-10T02:04:24.193Z,27.51
2018-08-10T02:05:34.017Z,27.42
2018-08-10T02:06:44.090Z,27.49
2018-08-10T02:07:53.935Z,27.42
2018-08-10T02:09:04.011Z,27.46
2018-08-10T02:10:14.094Z,27.36
2018-08-10T02:11:24.182Z,27.33
2018-08-10T02:12:34.273Z,27.28
2018-08-10T02:13:44.435Z,27.31
2018-08-10T02:14:54.513Z,27.3
2018-08-10T02:16:04.592Z,27.24
2018-08-10T02:17:14.409Z,27.31
2018-08-10T02:18:24.216Z,27.26
2018-08-10T02:19:33.784Z,27.19
2018-08-10T02:20:43.870Z,27.19
2018-08-10T02:21:53.927Z,27.13
2018-08-10T02:23:03.756Z,27.09
2018-08-10T02:24:13.843Z,27.11
2018-08-10T02:25:23.980Z,27.12
2018-08-10T02:26:34.061Z,27.11
2018-08-10T02:27:44.145Z,27.11
2018-08-10T02:28:54.227Z,27.05
2018-08-10T02:30:04.313Z,27.05
2018-08-10T02:31:14.401Z,27.01
2018-08-10T02:32:24.531Z,26.97
2018-08-10T02:33:34.612Z,26.99
2018-08-10T02:34:44.709Z,26.97
2018-08-10T02:35:54.802Z,26.94
2018-08-10T02:37:04.886Z,26.91
2018-08-10T02:38:14.697Z,26.97
2018-08-10T02:39:24.573Z,26.91
2018-08-10T02:40:34.389Z,26.99
2018-08-10T02:41:43.971Z,26.97
2018-08-10T02:42:54.068Z,26.99
2018-08-10T02:44:04.148Z,26.99
2018-08-10T02:45:13.972Z,26.93
2018-08-10T02:46:24.061Z,26.96
2018-08-10T02:47:34.140Z,26.9
2018-08-10T02:48:44.294Z,26.94
2018-08-10T02:49:54.387Z,26.9
2018-08-10T02:51:04.471Z,26.87
2018-08-10T02:52:14.552Z,26.94
2018-08-10T02:53:24.628Z,26.93
2018-08-10T02:54:34.460Z,26.96
2018-08-10T02:55:44.533Z,26.81
2018-08-10T02:56:54.614Z,26.93
2018-08-10T02:58:04.435Z,26.79
2018-08-10T02:59:14.513Z,26.84
2018-08-10T03:00:24.590Z,26.79
2018-08-10T03:01:34.670Z,26.79
2018-08-10T03:02:44.514Z,26.79
2018-08-10T03:35:15.244Z,25.12
2018-08-10T03:36:24.773Z,25.04
2018-08-10T03:37:34.865Z,25.04
2018-08-10T03:38:44.969Z,25
2018-08-10T03:39:55.091Z,25.05
2018-08-10T03:41:05.173Z,25.11
2018-08-10T03:42:15.229Z,25.22
2018-08-10T03:43:25.306Z,25.22
2018-08-10T03:44:35.114Z,25.27
2018-08-10T03:45:45.200Z,25.42
2018-08-10T03:46:55.058Z,25.52
2018-08-10T03:48:05.126Z,25.62
2018-08-10T03:49:14.933Z,25.63
2018-08-10T03:50:25.014Z,25.79
2018-08-10T03:51:35.095Z,25.94
2018-08-10T03:52:45.244Z,25.93
2018-08-10T03:53:55.327Z,26.03
2018-08-10T03:55:05.400Z,26.15
2018-08-10T03:56:15.516Z,26.15
2018-08-10T03:57:25.442Z,26.35
2018-08-10T03:58:35.255Z,26.3
2018-08-10T03:59:45.326Z,26.41
2018-08-10T04:00:55.401Z,26.45
2018-08-10T04:02:05.210Z,26.44
2018-08-10T04:03:15.291Z,26.52
2018-08-10T04:04:25.392Z,26.63
2018-08-10T04:05:35.474Z,26.68
2018-08-10T04:06:45.549Z,26.67
2018-08-10T04:07:55.628Z,26.69
2018-08-10T04:09:05.704Z,26.78
2018-08-10T04:10:15.780Z,26.78
2018-08-10T04:11:25.588Z,26.81
2018-08-10T04:12:35.429Z,26.89
2018-08-10T04:13:45.546Z,26.89
2018-08-10T04:14:55.634Z,26.94
2018-08-10T04:16:05.717Z,26.96
2018-08-10T04:17:15.796Z,26.96
2018-08-10T04:18:25.855Z,27.01
2018-08-10T04:19:35.679Z,27.08
2018-08-10T04:20:45.758Z,27.08
2018-08-10T04:21:55.839Z,27.09
2018-08-10T04:23:05.913Z,27.09
2018-08-10T04:24:16.002Z,27.13
2018-08-10T04:25:26.074Z,27.12
2018-08-10T04:26:35.891Z,27.15
2018-08-10T04:27:46.013Z,27.21
2018-08-10T04:28:55.845Z,27.24
2018-08-10T04:30:05.942Z,27.31
2018-08-10T04:31:16.019Z,27.38
2018-08-10T04:32:26.101Z,27.48
2018-08-10T04:33:36.181Z,27.59
2018-08-10T04:34:45.993Z,27.59
2018-08-10T04:35:55.534Z,27.71
2018-08-10T04:37:05.621Z,27.9
2018-08-10T04:38:15.436Z,28.08
2018-08-10T04:39:25.000Z,28.08
2018-08-10T04:40:34.818Z,28.16
2018-08-10T04:41:44.900Z,28.21
2018-08-10T04:42:54.705Z,28.16
2018-08-10T04:44:04.785Z,28.3
2018-08-10T04:45:14.869Z,28.31
2018-08-10T04:46:24.945Z,28.36
2018-08-10T04:47:35.034Z,28.33
2018-08-10T04:48:45.111Z,28.46
2018-08-10T04:49:55.205Z,28.67
2018-08-10T04:51:05.273Z,28.95
2018-08-10T04:52:15.374Z,29.1
2018-08-10T04:53:25.182Z,29.66
2018-08-10T04:54:34.749Z,30.31
2018-08-10T04:55:44.831Z,30.94
2018-08-10T04:56:54.906Z,31.41
2018-08-10T04:58:04.996Z,31.78
2018-08-10T04:59:15.094Z,32.05
2018-08-10T05:00:25.166Z,32.23
2018-08-10T05:01:34.977Z,32.49
2018-08-10T05:02:45.079Z,32.8
2018-08-10T05:03:55.121Z,32.99
2018-08-10T05:05:04.693Z,33.26
2018-08-10T05:06:14.784Z,33.36
2018-08-10T05:07:24.866Z,33.52
2018-08-10T05:08:34.992Z,33.58
2018-08-10T05:09:45.149Z,33.62
2018-08-10T05:10:55.109Z,33.71
2018-08-10T05:12:05.178Z,33.65
2018-08-10T05:13:15.009Z,33.58
2018-08-10T05:14:24.831Z,33.56
2018-08-10T05:15:34.975Z,33.48
2018-08-10T05:16:45.154Z,33.62
2018-08-10T05:17:54.972Z,33.52
2018-08-10T05:19:04.260Z,33.56
2018-08-10T05:20:13.823Z,33.61
2018-08-10T05:21:23.383Z,33.74
2018-08-10T05:22:33.473Z,34.05
2018-08-10T05:23:43.531Z,34.27
2018-08-10T05:24:53.603Z,34.37
2018-08-10T05:26:04.020Z,34.39
2018-08-10T05:27:14.096Z,33.52
2018-08-10T05:28:23.982Z,32.89
2018-08-10T05:29:34.079Z,32.35
2018-08-10T05:30:44.150Z,32.03
2018-08-10T05:31:54.214Z,31.67
2018-08-10T05:33:04.290Z,31.44
2018-08-10T05:34:14.366Z,31.12
2018-08-10T05:35:24.444Z,30.99
2018-08-10T05:36:34.511Z,30.82
2018-08-10T05:37:44.408Z,30.77
2018-08-10T05:38:54.491Z,30.62
2018-08-10T05:40:04.575Z,30.63
2018-08-10T05:41:14.641Z,30.54
2018-08-10T05:42:24.755Z,30.47
2018-08-10T05:43:34.834Z,30.57
2018-08-10T05:44:44.916Z,30.59
2018-08-10T05:45:55.008Z,30.77
2018-08-10T05:47:05.426Z,30.99
2018-08-10T05:48:15.443Z,30.91
2018-08-10T05:49:25.531Z,31.23
2018-08-10T05:50:35.617Z,31.13
2018-08-10T05:51:45.432Z,30.88
2018-08-10T05:52:55.271Z,30.81
2018-08-10T05:54:05.092Z,30.78
2018-08-10T05:55:15.167Z,31.06
2018-08-10T05:56:25.230Z,31.28
2018-08-10T05:57:35.303Z,30.91
2018-08-10T05:58:45.442Z,30.85
2018-08-10T05:59:55.255Z,30.88
2018-08-10T06:01:05.359Z,31.53
2018-08-10T06:02:15.439Z,31.6
2018-08-10T06:03:25.853Z,31.63
2018-08-10T06:04:36.171Z,31.59
2018-08-10T06:05:46.008Z,31.45
2018-08-10T06:06:56.085Z,31.41
2018-08-10T06:08:06.163Z,31.26
2018-08-10T06:09:15.733Z,31.18
2018-08-10T06:10:25.823Z,31.26
2018-08-10T06:11:35.468Z,31.16
2018-08-10T06:12:45.553Z,31.18
2018-08-10T06:13:55.626Z,31.21
2018-08-10T06:15:05.444Z,31.45
2018-08-10T06:16:15.258Z,31.72
2018-08-10T06:17:24.550Z,31.95
2018-08-10T06:18:34.632Z,32.19
2018-08-10T06:19:44.908Z,32.37
2018-08-10T06:20:54.839Z,32.37
2018-08-10T06:22:04.933Z,32.42
2018-08-10T06:23:15.012Z,32.46
2018-08-10T06:24:25.078Z,32.47
2018-08-10T06:25:35.151Z,32.56
2018-08-10T06:26:45.217Z,32.71
2018-08-10T06:27:55.500Z,32.76
2018-08-10T06:29:05.745Z,32.86
2018-08-10T06:30:15.819Z,32.9
2018-08-10T06:31:25.890Z,32.83
2018-08-10T06:32:35.950Z,32.75
2018-08-10T06:33:46.225Z,32.61
2018-08-10T06:34:55.792Z,32.38
2018-08-10T06:36:05.891Z,32.39
2018-08-10T06:37:15.969Z,32.2
2018-08-10T06:38:26.052Z,32.06
2018-08-10T06:39:36.122Z,31.93
2018-08-10T06:40:46.010Z,31.86
2018-08-10T06:41:56.150Z,31.78
2018-08-10T06:43:06.250Z,31.8
2018-08-10T06:44:16.345Z,31.65
2018-08-10T06:45:26.154Z,31.58
2018-08-10T06:46:36.245Z,31.55
2018-08-10T06:47:46.070Z,31.58
2018-08-10T06:48:56.148Z,31.47
2018-08-10T06:50:06.300Z,31.38
2018-08-10T06:51:16.865Z,31.44
2018-08-10T06:52:27.178Z,31.43
2018-08-10T06:53:37.020Z,31.47
2018-08-10T06:54:47.109Z,31.43
2018-08-10T06:55:57.776Z,31.41
2018-08-10T06:57:07.875Z,31.53
2018-08-10T06:58:17.963Z,31.43
2018-08-10T06:59:28.091Z,31.44
2018-08-10T07:00:37.816Z,31.44
2018-08-10T07:01:47.955Z,31.52
2018-08-10T07:02:57.776Z,31.52
2018-08-10T07:04:07.883Z,31.55
2018-08-10T07:05:17.977Z,31.67
2018-08-10T07:06:28.083Z,31.75
2018-08-10T07:07:38.555Z,31.86
2018-08-10T07:08:48.693Z,31.93
2018-08-10T07:09:58.526Z,32.03
2018-08-10T07:11:08.610Z,32.13
2018-08-10T07:12:18.688Z,32.23
2018-08-10T07:13:29.155Z,32.28
2018-08-10T07:14:39.183Z,32.43
2018-08-10T07:15:49.331Z,32.46
2018-08-10T07:16:59.417Z,32.45
2018-08-10T07:18:09.494Z,32.46
2018-08-10T07:19:19.305Z,32.5
2018-08-10T07:20:29.420Z,32.53
2018-08-10T07:21:39.518Z,32.61
2018-08-10T07:22:49.622Z,32.52
2018-08-10T07:23:59.702Z,32.59
2018-08-10T07:25:09.790Z,32.75
2018-08-10T07:26:19.619Z,32.75
2018-08-10T07:27:29.730Z,32.62
2018-08-10T07:28:39.547Z,32.76
2018-08-10T07:29:49.373Z,32.68
2018-08-10T07:30:59.254Z,32.76
2018-08-10T07:32:09.402Z,32.79
2018-08-10T07:33:19.509Z,32.71
2018-08-10T07:34:29.114Z,32.71
2018-08-10T07:35:39.208Z,32.65
2018-08-10T07:36:49.336Z,32.5
2018-08-10T07:37:59.434Z,32.42
2018-08-10T07:39:09.514Z,32.35
2018-08-10T07:40:19.624Z,32.45
2018-08-10T07:41:29.716Z,32.37
2018-08-10T07:42:39.534Z,32.49
2018-08-10T07:43:49.350Z,32.43
2018-08-10T07:44:59.451Z,32.52
2018-08-10T07:46:09.532Z,32.69
2018-08-10T07:47:19.342Z,32.68
2018-08-10T07:48:29.422Z,32.69
2018-08-10T07:49:39.531Z,32.65
2018-08-10T07:50:49.625Z,32.72
2018-08-10T07:51:59.499Z,32.65
2018-08-10T07:53:09.639Z,32.56
2018-08-10T07:54:19.725Z,32.57
2018-08-10T07:55:29.830Z,32.46
2018-08-10T07:56:39.657Z,32.47
2018-08-10T07:57:49.489Z,32.46
2018-08-10T07:58:59.373Z,32.5
2018-08-10T08:00:09.640Z,32.62
2018-08-10T08:01:19.872Z,32.56
2018-08-10T08:02:29.946Z,32.57
2018-08-10T08:03:40.053Z,32.56
2018-08-10T08:04:50.159Z,32.62
2018-08-10T08:05:59.739Z,32.57
2018-08-10T08:07:10.316Z,32.59
2018-08-10T08:08:20.415Z,32.62
2018-08-10T08:09:30.482Z,32.72
2018-08-10T08:10:40.967Z,32.71
2018-08-10T08:11:51.091Z,32.74
2018-08-10T08:13:01.163Z,32.74
2018-08-10T08:14:11.245Z,32.74
2018-08-10T08:15:21.066Z,32.8
2018-08-10T08:16:30.901Z,32.75
2018-08-10T08:17:40.988Z,32.74
2018-08-10T08:18:51.065Z,32.81
2018-08-10T08:20:01.598Z,32.86
2018-08-10T08:21:11.801Z,32.8
2018-08-10T08:22:21.892Z,32.83
2018-08-10T08:23:32.028Z,32.81
2018-08-10T08:24:41.852Z,32.9
2018-08-10T08:25:51.931Z,32.94
2018-08-10T08:27:01.773Z,32.99
2018-08-10T08:28:12.062Z,33.06
2018-08-10T08:29:22.207Z,33.09
2018-08-10T08:30:32.284Z,33.17
2018-08-10T08:31:42.398Z,33.16
2018-08-10T08:32:52.479Z,33.18
2018-08-10T08:34:02.564Z,33.21
2018-08-10T08:35:12.787Z,33.23
2018-08-10T08:36:22.940Z,33.28
2018-08-10T08:37:32.775Z,33.28
2018-08-10T08:38:42.633Z,33.37
2018-08-10T08:39:52.476Z,33.36
2018-08-10T08:41:02.864Z,33.4
2018-08-10T08:42:13.188Z,33.39
2018-08-10T08:43:23.013Z,33.41
2018-08-10T08:44:33.100Z,33.55
2018-08-10T08:45:43.669Z,33.59
2018-08-10T08:46:54.888Z,33.66
2018-08-10T08:48:05.023Z,33.75
2018-08-10T08:49:15.109Z,33.77
2018-08-10T08:50:25.218Z,33.87
2018-08-10T08:51:35.319Z,33.9
2018-08-10T08:52:45.402Z,33.89
2018-08-10T08:53:55.157Z,33.92
2018-08-10T08:55:05.377Z,33.95
2018-08-10T08:56:15.461Z,33.93
2018-08-10T08:57:25.822Z,33.85
2018-08-10T08:58:35.910Z,33.68
2018-08-10T08:59:45.996Z,33.63
2018-08-10T09:00:56.101Z,33.8
2018-08-10T09:02:05.929Z,33.84
2018-08-10T09:03:16.037Z,33.97
2018-08-10T09:04:26.173Z,33.99
2018-08-10T09:05:36.280Z,34.06
2018-08-10T09:06:46.388Z,34.05
2018-08-10T09:07:56.224Z,34.08
2018-08-10T09:09:06.336Z,34.17
2018-08-10T09:10:16.466Z,34.19
2018-08-10T09:11:25.891Z,34.24
2018-08-10T09:12:35.976Z,34.19
2018-08-10T09:13:45.803Z,34.3
2018-08-10T09:14:55.378Z,34.26
2018-08-10T09:16:05.213Z,34.3
2018-08-10T09:17:28.349Z,34.26
2018-08-10T09:19:08.506Z,34.17
2018-08-10T09:20:18.714Z,34.27
2018-08-10T09:21:28.715Z,34.19
2018-08-10T09:22:38.814Z,34.37
2018-08-10T09:23:48.638Z,34.32
2018-08-10T09:24:58.475Z,34.33
2018-08-10T09:26:08.581Z,34.54
2018-08-10T09:27:18.736Z,34.66
2018-08-10T09:28:28.834Z,34.87
2018-08-10T09:29:38.682Z,35.05
2018-08-10T09:30:48.765Z,35.08
2018-08-10T09:31:59.074Z,35.21
2018-08-10T09:33:09.402Z,35.3
2018-08-10T09:34:19.292Z,35.34
2018-08-10T09:35:29.540Z,35.31
2018-08-10T09:36:39.614Z,35.4
2018-08-10T09:37:49.729Z,35.33
2018-08-10T09:38:59.848Z,35.45
2018-08-10T09:40:09.930Z,35.28
2018-08-10T09:41:19.756Z,35.2
2018-08-10T09:42:29.869Z,35.28
2018-08-10T09:43:39.955Z,35.27
2018-08-10T09:44:50.057Z,35.21
2018-08-10T09:46:00.167Z,35.23
2018-08-10T09:47:10.115Z,35.16
2018-08-10T09:48:20.210Z,35.13
2018-08-10T09:49:30.299Z,35.09
2018-08-10T09:50:40.403Z,35.08
2018-08-10T09:51:50.619Z,35.04
2018-08-10T09:53:00.779Z,35.01
2018-08-10T09:54:10.882Z,35.21
2018-08-10T09:55:20.717Z,35.28
2018-08-10T09:56:30.569Z,35.46
2018-08-10T09:57:40.379Z,35.58
2018-08-10T09:58:50.530Z,35.64
2018-08-10T10:00:00.761Z,35.86
2018-08-10T10:01:10.861Z,35.99
2018-08-10T10:02:20.942Z,36.19
2018-08-10T10:03:30.758Z,36.32
2018-08-10T10:04:40.836Z,36.37
2018-08-10T10:05:50.911Z,36.52
2018-08-10T10:07:01.004Z,36.59
2018-08-10T10:08:11.121Z,36.58
2018-08-10T10:09:20.953Z,36.63
2018-08-10T10:10:31.067Z,36.8
2018-08-10T10:11:41.157Z,37
2018-08-10T10:12:51.245Z,37.29
2018-08-10T10:14:01.335Z,37.34
2018-08-10T10:15:11.438Z,37.62
2018-08-10T10:16:21.291Z,37.81
2018-08-10T10:17:31.605Z,37.99
2018-08-10T10:18:41.597Z,38.08
2018-08-10T10:19:51.701Z,38.27
2018-08-10T10:21:01.839Z,38.44
2018-08-10T10:22:12.267Z,38.46
2018-08-10T10:23:22.102Z,38.18
2018-08-10T10:24:32.179Z,37.91
2018-08-10T10:25:42.274Z,37.68
2018-08-10T10:26:52.366Z,37.42
2018-08-10T10:28:02.457Z,37.36
2018-08-10T10:29:12.552Z,37.31
2018-08-10T10:30:22.645Z,37.27
2018-08-10T10:31:32.747Z,37.18
2018-08-10T10:32:43.034Z,37.09
2018-08-10T10:33:53.416Z,37.07
2018-08-10T10:35:03.504Z,37.15
2018-08-10T10:36:13.603Z,37.14
2018-08-10T10:37:23.715Z,37.37
2018-08-10T10:38:33.872Z,37.26
2018-08-10T10:39:44.005Z,37.22
2018-08-10T10:40:54.093Z,37.27
2018-08-10T10:42:04.177Z,37.37
2018-08-10T10:43:14.273Z,37.36
2018-08-10T10:44:24.406Z,37.37
2018-08-10T10:45:34.493Z,37.41
2018-08-10T10:46:44.600Z,37.31
2018-08-10T10:47:54.713Z,37.27
2018-08-10T10:49:04.797Z,37.12
2018-08-10T10:50:14.893Z,37.14
2018-08-10T10:51:24.992Z,37.09
2018-08-10T10:52:35.089Z,37.08
2018-08-10T10:53:44.665Z,37.05
2018-08-10T10:54:54.741Z,37.04
2018-08-10T10:56:04.841Z,37.09
2018-08-10T10:57:14.710Z,37.12
2018-08-10T10:58:24.816Z,37.12
2018-08-10T10:59:34.901Z,37.19
2018-08-10T11:00:44.971Z,37.14
2018-08-10T11:01:54.811Z,37.14
2018-08-10T11:03:04.929Z,37.15
2018-08-10T11:04:15.041Z,37.17
2018-08-10T11:05:24.888Z,37.18
2018-08-10T11:06:34.973Z,37.18
2018-08-10T11:07:45.114Z,37.15
2018-08-10T11:08:55.254Z,37.17
2018-08-10T11:10:05.341Z,37.19
2018-08-10T11:11:15.460Z,37.31
2018-08-10T11:12:25.563Z,37.61
2018-08-10T11:13:35.665Z,37.83
2018-08-10T11:14:45.760Z,37.93
2018-08-10T11:15:55.568Z,38.1
2018-08-10T11:17:05.393Z,38.09
2018-08-10T11:18:15.771Z,38.33
2018-08-10T11:19:25.861Z,38.44
2018-08-10T11:20:35.949Z,38.43
2018-08-10T11:21:46.033Z,38.36
2018-08-10T11:22:56.116Z,38.17
2018-08-10T11:24:06.611Z,37.98
2018-08-10T11:25:17.388Z,37.72
2018-08-10T11:26:28.078Z,37.54
2018-08-10T11:27:37.890Z,37.41
2018-08-10T11:28:47.990Z,37.31
2018-08-10T11:29:57.849Z,37.29
2018-08-10T11:31:07.986Z,37.3
2018-08-10T11:32:18.085Z,37.19
2018-08-10T11:33:28.174Z,37.14
2018-08-10T11:34:38.268Z,37
2018-08-10T11:35:48.370Z,36.96
2018-08-10T11:36:58.481Z,36.86
2018-08-10T11:38:08.587Z,36.97
2018-08-10T11:39:18.412Z,37.08
2018-08-10T11:40:28.494Z,37.3
2018-08-10T11:41:38.820Z,37.61
2018-08-10T11:42:49.064Z,38.24
2018-08-10T11:43:59.149Z,38.76
2018-08-10T11:45:09.475Z,39.2
2018-08-10T11:46:19.307Z,39.47
2018-08-10T11:47:29.402Z,39.54
2018-08-10T11:48:39.535Z,39.67
2018-08-10T11:49:49.621Z,39.57
2018-08-10T11:50:59.762Z,39.46
2018-08-10T11:52:09.885Z,39.68
2018-08-10T11:53:19.707Z,39.69
2018-08-10T11:54:29.888Z,39.87
2018-08-10T11:55:40.004Z,40.02
2018-08-10T11:56:50.095Z,40.03
2018-08-10T11:58:00.182Z,39.97
2018-08-10T11:59:10.283Z,39.99
2018-08-10T12:00:20.393Z,39.97
2018-08-10T12:01:30.491Z,39.76
2018-08-10T12:02:40.589Z,39.6
2018-08-10T12:03:50.684Z,39.37
2018-08-10T12:05:00.792Z,39.16
2018-08-10T12:06:10.484Z,39.08
2018-08-10T12:07:20.573Z,39.06
2018-08-10T12:08:30.411Z,39.08
2018-08-10T12:09:40.502Z,39.06
2018-08-10T12:10:50.361Z,38.96
2018-08-10T12:12:00.449Z,38.85
2018-08-10T12:13:10.545Z,38.78
2018-08-10T12:14:20.650Z,38.68
2018-08-10T12:15:30.733Z,38.73
2018-08-10T12:16:40.564Z,38.62
2018-08-10T12:17:50.397Z,38.71
2018-08-10T12:19:00.581Z,38.84
2018-08-10T12:20:10.507Z,38.87
2018-08-10T12:21:20.345Z,38.93
2018-08-10T12:22:30.463Z,38.61
2018-08-10T12:23:40.571Z,38.39
2018-08-10T12:24:51.041Z,38.24
2018-08-10T12:26:01.251Z,38.28
2018-08-10T12:27:11.379Z,38.36
2018-08-10T12:28:20.945Z,38.42
2018-08-10T12:29:30.775Z,38.56
2018-08-10T12:30:40.867Z,38.62
2018-08-10T12:31:50.978Z,38.71
2018-08-10T12:33:01.075Z,38.74
2018-08-10T12:34:10.887Z,39.06
2018-08-10T12:35:21.076Z,39.33
2018-08-10T12:36:31.164Z,39.4
2018-08-10T12:37:41.293Z,39.33
2018-08-10T12:38:51.134Z,39.31
2018-08-10T12:40:01.239Z,39.35
2018-08-10T12:41:11.341Z,39.35
2018-08-10T12:42:21.436Z,39.46
2018-08-10T12:43:31.548Z,39.37
2018-08-10T12:44:41.655Z,39.22
2018-08-10T12:45:51.753Z,39.09
2018-08-10T12:47:01.898Z,39.13
2018-08-10T12:48:11.733Z,38.84
2018-08-10T12:49:21.573Z,38.59
2018-08-10T12:50:31.495Z,38.62
2018-08-10T12:51:41.704Z,38.65
2018-08-10T12:52:51.552Z,38.66
2018-08-10T12:54:01.128Z,38.65
2018-08-10T12:55:10.944Z,38.64
2018-08-10T12:56:21.036Z,38.68
2018-08-10T12:57:31.134Z,38.74
2018-08-10T12:58:41.239Z,38.8
2018-08-10T12:59:51.073Z,38.68
2018-08-10T13:01:01.177Z,38.59
2018-08-10T13:02:11.005Z,38.49
2018-08-10T13:03:21.359Z,38.27
2018-08-10T13:04:31.697Z,37.99
2018-08-10T13:05:41.518Z,37.64
2018-08-10T13:06:51.620Z,37.53
2018-08-10T13:08:01.712Z,37.27
2018-08-10T13:09:11.558Z,37.08
2018-08-10T13:10:21.650Z,36.83
2018-08-10T13:11:31.732Z,36.71
2018-08-10T13:12:41.560Z,36.63
2018-08-10T13:13:51.650Z,36.61
2018-08-10T13:15:01.757Z,36.7
2018-08-10T13:16:11.859Z,36.58
2018-08-10T13:17:21.974Z,36.58
2018-08-10T13:18:32.421Z,36.62
2018-08-10T13:19:42.674Z,36.61
2018-08-10T13:20:52.793Z,36.62
2018-08-10T13:22:02.433Z,36.67
2018-08-10T13:23:12.520Z,36.84
2018-08-10T13:24:22.378Z,36.84
2018-08-10T13:25:32.236Z,36.95
2018-08-10T13:26:42.332Z,36.99
2018-08-10T13:27:52.454Z,37.09
2018-08-10T13:29:02.557Z,37.04
2018-08-10T13:30:12.684Z,37.04
2018-08-10T13:31:22.491Z,37.09
2018-08-10T13:32:32.572Z,37.05
2018-08-10T13:33:42.647Z,37
2018-08-10T13:34:52.220Z,37.02
2018-08-10T13:36:02.306Z,36.93
2018-08-10T13:37:12.402Z,36.97
2018-08-10T13:38:22.493Z,36.84
2018-08-10T13:39:32.334Z,36.84
2018-08-10T13:40:42.415Z,36.78
2018-08-10T13:41:52.536Z,36.88
2018-08-10T13:43:02.377Z,37.09
2018-08-10T13:44:12.473Z,37.12
2018-08-10T13:45:22.653Z,37.24
2018-08-10T13:46:32.790Z,37.27
2018-08-10T13:47:42.891Z,37.24
2018-08-10T13:48:52.735Z,37.29
2018-08-10T13:50:02.837Z,37.37
2018-08-10T13:51:12.931Z,37.31
2018-08-10T13:52:22.759Z,37.36
2018-08-10T13:53:32.848Z,37.53
2018-08-10T13:54:42.948Z,37.54
2018-08-10T13:55:53.051Z,37.65
2018-08-10T13:57:03.209Z,37.72
2018-08-10T13:58:13.566Z,37.79
2018-08-10T13:59:23.404Z,37.79
2018-08-10T14:00:33.517Z,37.81
2018-08-10T14:01:43.606Z,37.88
2018-08-10T14:02:53.717Z,37.93
2018-08-10T14:04:03.551Z,37.87
2018-08-10T14:05:13.664Z,38.02
2018-08-10T14:06:24.092Z,38
2018-08-10T14:07:34.323Z,37.93
2018-08-10T14:08:44.472Z,37.98
2018-08-10T14:09:54.557Z,37.96
2018-08-10T14:11:04.380Z,37.8
2018-08-10T14:12:14.491Z,37.74
2018-08-10T14:13:24.592Z,37.61
2018-08-10T14:14:34.725Z,37.49
2018-08-10T14:15:44.636Z,37.42
2018-08-10T14:16:54.926Z,37.37
2018-08-10T14:18:05.051Z,37.39
2018-08-10T14:19:15.141Z,37.57
2018-08-10T14:20:25.302Z,37.81
2018-08-10T14:21:35.386Z,38
2018-08-10T14:22:45.499Z,38.36
2018-08-10T14:23:55.337Z,38.47
2018-08-10T14:25:05.410Z,38.64
2018-08-10T14:26:15.528Z,38.7
2018-08-10T14:27:25.368Z,38.81
2018-08-10T14:28:35.467Z,38.9
2018-08-10T14:29:45.297Z,38.78
2018-08-10T14:30:55.384Z,38.76
2018-08-10T14:32:05.205Z,38.65
2018-08-10T14:33:15.068Z,38.54
2018-08-10T14:34:24.919Z,38.39
2018-08-10T14:35:35.026Z,38.25
2018-08-10T14:36:45.105Z,38.1
2018-08-10T14:37:55.265Z,37.99
2018-08-10T14:39:05.367Z,37.84
2018-08-10T14:40:15.475Z,37.74
2018-08-10T14:41:25.970Z,37.61
2018-08-10T14:42:36.160Z,37.36
2018-08-10T14:43:46.252Z,37.26
2018-08-10T14:44:56.354Z,37.07
2018-08-10T14:46:06.471Z,36.84
2018-08-10T14:47:16.750Z,36.75
2018-08-10T14:48:27.079Z,36.63
2018-08-10T14:49:36.891Z,36.61
2018-08-10T14:50:46.997Z,36.37
2018-08-10T14:51:57.124Z,36.28
2018-08-10T14:53:07.232Z,36.12
2018-08-10T14:54:17.067Z,35.94
2018-08-10T14:55:27.139Z,35.69
2018-08-10T14:56:37.236Z,35.57
2018-08-10T14:57:47.319Z,35.47
2018-08-10T14:58:57.415Z,35.34
2018-08-10T15:00:07.507Z,35.23
2018-08-10T15:01:17.661Z,35.02
2018-08-10T15:02:27.760Z,34.9
2018-08-10T15:03:37.573Z,34.78
2018-08-10T15:04:47.684Z,34.56
2018-08-10T15:05:57.756Z,34.48
2018-08-10T15:07:07.931Z,34.33
2018-08-10T15:08:17.803Z,34.22
2018-08-10T15:09:27.922Z,34.1
2018-08-10T15:10:38.008Z,34
2018-08-10T15:11:47.905Z,33.92
2018-08-10T15:12:59.037Z,33.84
2018-08-10T15:14:09.342Z,33.77
2018-08-10T15:15:19.484Z,33.58
2018-08-10T15:16:29.305Z,33.39
2018-08-10T15:17:39.403Z,33.28
2018-08-10T15:18:48.958Z,33.16
2018-08-10T15:19:59.047Z,32.9
2018-08-10T15:21:09.125Z,32.8
2018-08-10T15:22:18.985Z,32.69
2018-08-10T15:23:29.114Z,32.52
2018-08-10T15:24:39.233Z,32.52
2018-08-10T15:25:49.044Z,32.38
2018-08-10T15:26:59.126Z,32.31
2018-08-10T15:28:09.221Z,32.17
2018-08-10T15:29:19.050Z,31.97
2018-08-10T15:30:29.148Z,31.88
2018-08-10T15:31:39.300Z,31.63
2018-08-10T15:32:49.405Z,31.58
2018-08-10T15:33:59.237Z,31.49
2018-08-10T15:35:09.337Z,31.44
2018-08-10T15:36:19.415Z,31.41
2018-08-10T15:37:29.487Z,31.21